Time;durP1;ratioP1;P1;durP2;ratioP2;P2;SDS_P1;SDS_P2;PMS_P1;PMS_P2;Temp;Humidity;BMP_temperature;BMP_pressure;BME280_temperature;BME280_humidity;BME280_pressure;Samples;Min_cycle;Max_cycle;Signal;HPM_P1;HPM_P2
2023/05/21 00:00:14;;;;;;;18.70;15.23;;;;;;;17.85;60.88;96977.50;4916964;28;20193;-80
2023/05/21 00:02:40;;;;;;;18.23;14.32;;;;;;;17.84;60.47;96965.41;4925942;28;20220;-80
2023/05/21 00:05:10;;;;;;;19.75;15.75;;;;;;;17.96;60.73;96978.88;4905274;28;20197;-80
2023/05/21 00:07:35;;;;;;;17.98;14.32;;;;;;;17.85;60.88;96972.25;4914550;28;20041;-81
2023/05/21 00:10:01;;;;;;;18.98;14.77;;;;;;;17.88;60.86;96969.06;4895863;28;20252;-80
2023/05/21 00:12:26;;;;;;;16.98;13.75;;;;;;;17.92;60.15;96972.63;4903971;28;20281;-81
2023/05/21 00:14:52;;;;;;;17.77;14.73;;;;;;;17.71;60.94;96962.50;4898389;28;20276;-79
2023/05/21 00:17:17;;;;;;;17.35;14.68;;;;;;;17.81;61.12;96964.16;4927878;28;20803;-81
2023/05/21 00:19:43;;;;;;;17.42;14.23;;;;;;;17.84;61.26;96970.66;4904210;28;20320;-79
2023/05/21 00:22:09;;;;;;;19.08;15.60;;;;;;;17.77;61.05;96969.25;4927700;28;20297;-79
2023/05/21 00:24:34;;;;;;;18.65;14.80;;;;;;;17.77;60.96;96955.31;4926022;28;20696;-80
2023/05/21 00:27:00;;;;;;;17.60;14.95;;;;;;;17.70;61.02;96942.53;4911951;28;20132;-79
2023/05/21 00:29:26;;;;;;;18.20;15.75;;;;;;;17.59;61.79;96943.81;4913808;28;20185;-80
2023/05/21 00:31:52;;;;;;;19.58;14.90;;;;;;;17.69;62.20;96946.22;4929525;28;20190;-80
2023/05/21 00:34:17;;;;;;;18.55;15.18;;;;;;;17.65;61.62;96947.91;4907156;28;20303;-80
2023/05/21 00:36:44;;;;;;;18.15;14.77;;;;;;;17.65;61.72;96942.63;4911589;28;20271;-80
2023/05/21 00:39:10;;;;;;;18.77;15.55;;;;;;;17.68;61.94;96946.53;4926252;28;20275;-81
2023/05/21 00:41:38;;;;;;;20.10;15.80;;;;;;;17.76;61.34;96949.22;4901730;28;20296;-80
2023/05/21 00:44:05;;;;;;;21.05;15.15;;;;;;;17.69;61.94;96945.47;4891448;28;20318;-80
2023/05/21 00:46:31;;;;;;;19.27;15.23;;;;;;;17.82;61.77;96941.22;4927416;28;20244;-80
2023/05/21 00:48:59;;;;;;;18.95;14.80;;;;;;;17.88;60.85;96943.47;4903811;28;20218;-79
2023/05/21 00:51:28;;;;;;;18.80;14.88;;;;;;;17.74;61.58;96943.50;4926285;28;20232;-79
2023/05/21 00:53:54;;;;;;;19.33;15.18;;;;;;;17.68;61.98;96936.75;4911988;28;20275;-81
2023/05/21 00:56:22;;;;;;;20.30;15.20;;;;;;;17.59;62.26;96936.69;4912734;28;20209;-80
2023/05/21 00:58:48;;;;;;;18.63;14.82;;;;;;;17.70;61.59;96929.38;4926199;28;20204;-79
2023/05/21 01:01:14;;;;;;;19.60;15.40;;;;;;;17.44;62.54;96930.97;4929718;28;20307;-81
2023/05/21 01:03:41;;;;;;;22.52;16.20;;;;;;;17.38;62.92;96928.44;4915445;23;20254;-79
2023/05/21 01:06:07;;;;;;;17.55;14.73;;;;;;;17.40;63.59;96934.19;4857443;28;20245;-80
2023/05/21 01:08:39;;;;;;;21.38;16.23;;;;;;;17.34;63.51;96924.03;4859072;28;20459;-79
2023/05/21 01:11:06;;;;;;;21.58;16.60;;;;;;;17.38;63.54;96931.06;4874262;28;20275;-78
2023/05/21 01:13:33;;;;;;;19.92;15.57;;;;;;;17.25;63.98;96918.69;4873057;28;20203;-79
2023/05/21 01:16:00;;;;;;;20.27;16.00;;;;;;;17.42;63.08;96918.88;4890243;28;20357;-78
2023/05/21 01:18:25;;;;;;;20.33;15.38;;;;;;;17.26;63.47;96912.38;4875992;28;20300;-78
2023/05/21 01:20:51;;;;;;;20.75;17.00;;;;;;;17.14;63.86;96912.84;4872289;28;20443;-80
2023/05/21 01:23:17;;;;;;;20.60;15.85;;;;;;;17.33;63.38;96910.13;4893881;28;20214;-79
2023/05/21 01:25:43;;;;;;;20.92;15.20;;;;;;;17.34;63.57;96910.88;4873716;28;20559;-79
2023/05/21 01:28:09;;;;;;;20.27;14.88;;;;;;;17.31;63.18;96907.00;4872187;28;20259;-79
2023/05/21 01:30:35;;;;;;;19.60;15.50;;;;;;;17.23;64.25;96911.09;4872191;28;20287;-78
2023/05/21 01:33:12;;;;;;;21.38;15.45;;;;;;;17.27;64.01;96899.97;4887403;28;20176;-79
2023/05/21 01:35:41;;;;;;;20.73;14.88;;;;;;;17.37;64.04;96902.41;4887396;28;20682;-80
2023/05/21 01:38:20;;;;;;;19.52;14.73;;;;;;;17.50;63.27;96898.22;4872785;28;20389;-80
2023/05/21 01:40:57;;;;;;;19.58;14.98;;;;;;;17.38;63.50;96898.72;4856255;28;20200;-79
2023/05/21 01:43:24;;;;;;;20.20;14.77;;;;;;;17.39;63.66;96903.69;4870420;28;20390;-79
2023/05/21 01:45:52;;;;;;;19.55;16.05;;;;;;;17.32;63.53;96895.38;4892312;28;20435;-79
2023/05/21 01:48:18;;;;;;;22.30;15.68;;;;;;;17.37;63.58;96900.53;4855656;28;20338;-79
2023/05/21 01:50:45;;;;;;;21.25;15.52;;;;;;;17.37;63.56;96911.06;4889062;28;20439;-80
2023/05/21 01:53:10;;;;;;;21.33;16.38;;;;;;;17.36;63.42;96904.28;4865874;28;20291;-79
2023/05/21 01:55:40;;;;;;;18.92;15.50;;;;;;;17.42;63.30;96897.81;4889231;28;20259;-80
2023/05/21 01:58:07;;;;;;;19.52;15.85;;;;;;;17.35;63.56;96897.44;4856597;28;20444;-80
2023/05/21 02:00:33;;;;;;;21.35;16.13;;;;;;;17.33;63.79;96904.09;4874609;28;20201;-80
2023/05/21 02:02:59;;;;;;;19.63;15.63;;;;;;;17.27;63.56;96892.84;4859099;28;20617;-80
2023/05/21 02:05:24;;;;;;;21.42;15.05;;;;;;;17.31;63.84;96896.47;4891483;28;20191;-80
2023/05/21 02:07:53;;;;;;;20.33;16.15;;;;;;;17.13;64.36;96894.72;4873548;28;20224;-79
2023/05/21 02:10:19;;;;;;;19.70;14.25;;;;;;;17.24;64.14;96890.84;4889392;28;20263;-80
2023/05/21 02:12:44;;;;;;;20.05;15.65;;;;;;;17.13;64.37;96892.09;4864396;28;20383;-79
2023/05/21 02:15:10;;;;;;;22.35;16.30;;;;;;;17.09;64.21;96888.50;4885286;28;20173;-80
2023/05/21 02:17:37;;;;;;;20.60;15.27;;;;;;;17.07;64.30;96890.63;4887074;28;20207;-80
2023/05/21 02:20:10;;;;;;;20.92;16.05;;;;;;;17.08;64.47;96887.72;4902115;28;20199;-80
2023/05/21 02:22:43;;;;;;;20.67;15.20;;;;;;;17.08;64.93;96889.56;4885263;28;20226;-80
2023/05/21 02:25:09;;;;;;;21.20;16.08;;;;;;;16.98;64.52;96888.72;4888536;28;20391;-79
2023/05/21 02:27:36;;;;;;;21.35;15.50;;;;;;;17.02;64.50;96887.03;4878018;28;20447;-80
2023/05/21 02:30:20;;;;;;;19.98;15.60;;;;;;;17.03;64.78;96875.47;4876021;28;20204;-79
2023/05/21 02:32:47;;;;;;;21.33;15.63;;;;;;;16.86;65.24;96872.63;4903035;28;20437;-80
2023/05/21 02:35:12;;;;;;;19.27;15.50;;;;;;;16.88;65.35;96873.13;4872196;28;20437;-79
2023/05/21 02:37:42;;;;;;;22.65;16.67;;;;;;;16.89;65.40;96872.03;4905099;28;20348;-80
2023/05/21 02:40:08;;;;;;;22.70;16.92;;;;;;;16.87;65.49;96871.56;4887475;28;20179;-79
2023/05/21 02:42:35;;;;;;;21.23;15.80;;;;;;;16.85;65.48;96863.19;4890677;28;20329;-79
2023/05/21 02:45:01;;;;;;;19.65;15.23;;;;;;;16.85;65.45;96863.19;4873493;28;20179;-80
2023/05/21 02:47:26;;;;;;;19.73;15.63;;;;;;;16.91;65.35;96869.88;4888262;28;20214;-80
2023/05/21 02:49:53;;;;;;;22.60;15.70;;;;;;;16.87;65.37;96876.03;4881536;28;20652;-80
2023/05/21 02:52:22;;;;;;;22.15;16.25;;;;;;;16.89;65.85;96868.63;4901990;28;20766;-80
2023/05/21 02:54:48;;;;;;;21.25;15.60;;;;;;;16.76;66.02;96870.16;4872838;28;20398;-80
2023/05/21 02:57:13;;;;;;;21.92;16.08;;;;;;;16.87;65.64;96870.78;4873482;28;20167;-80
2023/05/21 02:59:39;;;;;;;20.63;15.98;;;;;;;16.94;65.40;96873.78;4861314;28;20472;-80
2023/05/21 03:02:05;;;;;;;20.67;16.20;;;;;;;16.85;66.27;96874.47;4872008;28;20666;-80
2023/05/21 03:04:31;;;;;;;21.50;16.52;;;;;;;16.88;65.45;96867.06;4887311;28;20323;-79
2023/05/21 03:07:00;;;;;;;21.50;16.00;;;;;;;16.94;65.23;96860.66;4872252;28;20139;-79
2023/05/21 03:09:26;;;;;;;19.45;15.90;;;;;;;16.94;65.80;96869.31;4879643;28;20035;-80
2023/05/21 03:11:52;;;;;;;22.45;15.60;;;;;;;16.87;65.63;96863.66;4884685;28;20274;-79
2023/05/21 03:14:17;;;;;;;22.95;15.93;;;;;;;16.88;65.48;96867.88;4871622;28;20395;-80
2023/05/21 03:16:43;;;;;;;18.85;15.48;;;;;;;16.90;65.15;96860.47;4883556;28;20410;-79
2023/05/21 03:19:12;;;;;;;20.10;15.55;;;;;;;16.93;65.47;96865.13;4873094;28;20199;-80
2023/05/21 03:21:37;;;;;;;21.52;15.70;;;;;;;16.96;65.28;96871.66;4871316;28;20352;-80
2023/05/21 03:24:04;;;;;;;20.15;15.13;;;;;;;16.82;65.58;96861.09;4875922;28;20262;-80
2023/05/21 03:26:30;;;;;;;23.65;15.77;;;;;;;16.82;65.64;96863.72;4872121;28;20245;-80
2023/05/21 03:28:55;;;;;;;23.60;15.90;;;;;;;16.84;65.75;96862.41;4873947;28;20200;-79
2023/05/21 03:31:21;;;;;;;19.80;15.45;;;;;;;16.95;65.43;96863.00;4870390;28;20077;-79
2023/05/21 03:33:47;;;;;;;22.27;16.20;;;;;;;16.88;65.71;96864.44;4887426;28;20218;-80
2023/05/21 03:36:12;;;;;;;20.77;15.43;;;;;;;16.84;66.00;96864.25;4878008;28;20231;-79
2023/05/21 03:38:38;;;;;;;20.95;15.48;;;;;;;16.89;65.81;96866.00;4882037;28;20200;-80
2023/05/21 03:41:03;;;;;;;17.90;14.77;;;;;;;16.87;65.37;96863.66;4866683;28;20266;-80
2023/05/21 03:43:29;;;;;;;21.55;14.95;;;;;;;16.86;65.32;96862.09;4888131;28;20371;-79
2023/05/21 03:45:55;;;;;;;19.33;15.00;;;;;;;16.88;65.42;96873.13;4872355;28;20200;-79
2023/05/21 03:48:20;;;;;;;19.65;14.50;;;;;;;16.93;65.51;96873.03;4872168;28;20206;-79
2023/05/21 03:50:46;;;;;;;20.02;15.18;;;;;;;16.98;65.04;96872.13;4873564;28;20344;-80
2023/05/21 03:53:12;;;;;;;22.08;15.50;;;;;;;16.98;65.48;96872.13;4891077;28;20426;-80
2023/05/21 03:55:37;;;;;;;18.15;14.70;;;;;;;17.03;65.06;96870.19;4887476;28;20481;-81
2023/05/21 03:58:03;;;;;;;18.90;15.23;;;;;;;17.09;64.88;96872.72;4871789;28;20210;-80
2023/05/21 04:00:28;;;;;;;17.33;14.35;;;;;;;17.05;64.71;96862.03;4888858;28;20573;-80
2023/05/21 04:02:54;;;;;;;19.40;14.55;;;;;;;17.17;64.50;96877.28;4883414;28;20211;-80
2023/05/21 04:05:19;;;;;;;19.58;14.80;;;;;;;17.20;64.51;96876.69;4900927;28;20201;-80
2023/05/21 04:07:45;;;;;;;19.15;14.13;;;;;;;17.24;64.82;96877.69;4872278;28;20263;-80
2023/05/21 04:10:11;;;;;;;18.98;14.30;;;;;;;17.26;64.45;96877.41;4888342;28;20202;-80
2023/05/21 04:12:36;;;;;;;19.65;15.05;;;;;;;17.22;64.69;96872.72;4869097;28;20172;-79
2023/05/21 04:15:02;;;;;;;18.48;14.55;;;;;;;17.27;64.44;96877.06;4884003;28;20206;-80
2023/05/21 04:17:28;;;;;;;18.98;15.00;;;;;;;17.26;64.23;96877.41;4870993;28;20300;-80
2023/05/21 04:19:53;;;;;;;19.42;15.18;;;;;;;17.29;64.16;96877.56;4866017;28;20426;-80
2023/05/21 04:22:20;;;;;;;19.92;14.98;;;;;;;17.33;64.22;96878.53;4903586;28;20218;-79
2023/05/21 04:24:45;;;;;;;20.75;16.27;;;;;;;17.35;63.53;96878.25;4893451;28;20215;-80
2023/05/21 04:27:12;;;;;;;19.35;14.68;;;;;;;17.38;63.69;96880.28;4868290;28;20247;-80
2023/05/21 04:29:41;;;;;;;19.27;14.95;;;;;;;17.35;63.85;96881.66;4896467;28;20451;-79
2023/05/21 04:32:07;;;;;;;19.50;15.35;;;;;;;17.32;64.14;96879.59;4883004;28;20319;-80
2023/05/21 04:34:32;;;;;;;18.65;15.15;;;;;;;17.34;64.11;96876.69;4888037;28;20184;-80
2023/05/21 04:36:59;;;;;;;20.83;15.57;;;;;;;17.24;64.52;96882.94;4866078;28;20408;-80
2023/05/21 04:39:24;;;;;;;20.33;15.90;;;;;;;17.25;64.40;96888.97;4888193;28;20251;-80
2023/05/21 04:41:53;;;;;;;20.88;15.80;;;;;;;17.28;63.92;96881.28;4870669;28;20337;-80
2023/05/21 04:44:19;;;;;;;17.50;14.95;;;;;;;17.33;64.19;96883.81;4871248;28;20352;-80
2023/05/21 04:46:44;;;;;;;19.63;15.63;;;;;;;17.34;64.05;96888.00;4887000;28;20343;-80
2023/05/21 04:49:10;;;;;;;18.08;15.07;;;;;;;17.37;64.10;96894.50;4869135;28;20184;-80
2023/05/21 04:51:36;;;;;;;19.77;15.38;;;;;;;17.36;63.90;96888.47;4882727;28;20172;-80
2023/05/21 04:54:02;;;;;;;18.65;14.57;;;;;;;17.38;64.33;96894.22;4885055;28;20228;-79
2023/05/21 04:56:28;;;;;;;18.77;14.35;;;;;;;17.33;64.68;96889.06;4884619;28;20187;-80
2023/05/21 04:58:53;;;;;;;16.50;13.75;;;;;;;17.49;63.73;96886.09;4868522;28;20226;-80
2023/05/21 05:01:22;;;;;;;18.67;14.27;;;;;;;17.57;64.17;96893.31;4878860;28;20120;-80
2023/05/21 05:03:47;;;;;;;17.77;14.63;;;;;;;17.62;63.54;96887.94;4887478;28;20445;-80
2023/05/21 05:06:13;;;;;;;17.73;14.00;;;;;;;17.65;63.56;96892.63;4871152;28;20273;-80
2023/05/21 05:08:38;;;;;;;17.88;14.45;;;;;;;17.63;63.54;96889.47;4869679;28;20253;-80
2023/05/21 05:11:04;;;;;;;17.17;13.57;;;;;;;17.69;63.31;96890.94;4869242;28;20254;-80
2023/05/21 05:13:29;;;;;;;16.88;14.40;;;;;;;17.72;63.50;96882.44;4883768;28;20207;-80
2023/05/21 05:15:56;;;;;;;20.00;15.65;;;;;;;17.81;63.50;96894.91;4894498;28;20165;-80
2023/05/21 05:18:22;;;;;;;17.38;14.45;;;;;;;17.92;63.09;96898.88;4870986;28;20210;-80
2023/05/21 05:20:47;;;;;;;18.45;15.25;;;;;;;17.95;63.23;96893.78;4881587;28;20328;-81
2023/05/21 05:23:12;;;;;;;18.40;14.43;;;;;;;17.95;63.14;96893.78;4886980;28;20162;-81
2023/05/21 05:25:38;;;;;;;18.88;14.07;;;;;;;18.03;63.09;96897.59;4887668;28;20556;-80
2023/05/21 05:28:03;;;;;;;17.67;13.48;;;;;;;18.04;62.99;96893.09;4867638;28;20211;-81
2023/05/21 05:30:29;;;;;;;20.13;14.77;;;;;;;18.07;62.81;96893.25;4884623;28;20397;-81
2023/05/21 05:32:54;;;;;;;17.45;13.77;;;;;;;18.12;62.64;96892.38;4853976;28;20194;-80
2023/05/21 05:35:20;;;;;;;15.70;14.00;;;;;;;18.28;62.08;96890.94;4878049;28;20206;-80
2023/05/21 05:37:45;;;;;;;16.70;13.68;;;;;;;18.24;62.13;96891.84;4864681;28;20368;-80
2023/05/21 05:40:11;;;;;;;18.73;14.63;;;;;;;18.27;61.96;96885.97;4886498;28;20570;-80
2023/05/21 05:42:36;;;;;;;18.35;13.73;;;;;;;18.18;62.33;96879.84;4866624;28;20081;-80
2023/05/21 05:45:02;;;;;;;17.92;15.02;;;;;;;18.30;61.99;96882.72;4889724;28;20275;-81
2023/05/21 05:47:27;;;;;;;18.15;14.70;;;;;;;18.40;61.62;96887.72;4886016;28;20199;-81
2023/05/21 05:49:52;;;;;;;15.55;12.15;;;;;;;18.50;61.61;96897.25;4887639;28;20367;-80
2023/05/21 05:52:18;;;;;;;18.08;13.55;;;;;;;18.53;61.80;96886.88;4889438;28;20430;-80
2023/05/21 05:54:43;;;;;;;16.80;12.93;;;;;;;18.74;61.12;96886.34;4887050;28;20275;-80
2023/05/21 05:57:08;;;;;;;15.55;13.52;;;;;;;18.75;60.90;96890.56;4885552;28;20344;-80
2023/05/21 05:59:34;;;;;;;16.95;14.27;;;;;;;18.89;60.44;96888.59;4886182;28;20223;-81
2023/05/21 06:02:00;;;;;;;15.95;13.43;;;;;;;18.96;60.32;96888.16;4873118;28;20474;-81
2023/05/21 06:04:28;;;;;;;17.48;13.13;;;;;;;18.80;61.25;96890.41;4875590;28;20541;-80
2023/05/21 06:06:58;;;;;;;16.75;13.07;;;;;;;19.15;59.72;96898.47;4900632;28;20218;-81
2023/05/21 06:09:24;;;;;;;16.13;13.05;;;;;;;19.15;59.70;96889.78;4874062;28;20629;-80
2023/05/21 06:11:49;;;;;;;18.58;13.57;;;;;;;18.78;60.69;96897.88;4868785;28;20215;-81
2023/05/21 06:14:15;;;;;;;15.15;13.30;;;;;;;19.01;60.26;96898.59;4887980;28;20457;-80
2023/05/21 06:16:40;;;;;;;17.35;13.20;;;;;;;19.13;59.69;96900.63;4904276;28;20180;-81
2023/05/21 06:19:06;;;;;;;16.75;13.13;;;;;;;19.16;59.66;96892.13;4888272;28;20465;-80
2023/05/21 06:21:31;;;;;;;16.55;13.10;;;;;;;19.22;59.71;96898.03;4872979;28;20209;-81
2023/05/21 06:23:57;;;;;;;16.55;13.85;;;;;;;19.07;59.87;96900.00;4874907;28;20403;-80
2023/05/21 06:26:22;;;;;;;17.48;14.00;;;;;;;19.07;60.44;96896.56;4863586;28;20292;-81
2023/05/21 06:28:48;;;;;;;14.50;12.90;;;;;;;19.21;60.01;96899.88;4886971;28;20415;-81
2023/05/21 06:31:14;;;;;;;15.93;13.65;;;;;;;19.30;59.88;96892.00;4889821;28;20274;-81
2023/05/21 06:33:40;;;;;;;16.20;13.65;;;;;;;19.36;59.84;96890.75;4881883;28;20194;-81
2023/05/21 06:36:05;;;;;;;14.55;13.05;;;;;;;19.40;59.22;96891.69;4874763;28;20374;-81
2023/05/21 06:38:31;;;;;;;14.95;13.05;;;;;;;19.45;59.11;96891.56;4886120;28;20200;-80
2023/05/21 06:40:57;;;;;;;14.90;13.30;;;;;;;19.44;59.71;96883.94;4881975;28;20172;-80
2023/05/21 06:43:23;;;;;;;16.23;13.10;;;;;;;19.41;59.44;96889.81;4869223;28;20203;-81
2023/05/21 06:45:48;;;;;;;15.00;12.15;;;;;;;19.70;58.72;96886.59;4886066;28;20198;-80
2023/05/21 06:48:15;;;;;;;16.70;13.57;;;;;;;19.60;58.93;96879.78;4884845;28;20274;-81
2023/05/21 06:50:41;;;;;;;14.93;12.07;;;;;;;19.57;59.00;96890.16;4876773;28;20198;-81
2023/05/21 06:53:07;;;;;;;16.17;12.93;;;;;;;19.70;58.85;96891.09;4871712;28;20435;-80
2023/05/21 06:55:32;;;;;;;18.50;13.85;;;;;;;19.95;58.55;96893.00;4879321;28;20285;-81
2023/05/21 06:57:58;;;;;;;14.70;12.07;;;;;;;19.96;57.94;96894.56;4888437;28;20293;-80
2023/05/21 07:00:23;;;;;;;15.32;12.13;;;;;;;19.93;58.65;96905.75;4880370;28;20288;-81
2023/05/21 07:02:49;;;;;;;15.52;12.43;;;;;;;20.24;57.88;96904.00;4886052;28;20193;-81
2023/05/21 07:05:14;;;;;;;15.70;12.95;;;;;;;20.23;57.74;96895.28;4867150;28;20168;-80
2023/05/21 07:07:40;;;;;;;15.88;12.82;;;;;;;20.42;56.80;96897.59;4869836;28;20250;-80
2023/05/21 07:10:07;;;;;;;16.85;12.68;;;;;;;20.40;56.49;96895.25;4904706;28;20300;-81
2023/05/21 07:12:32;;;;;;;14.93;13.02;;;;;;;20.47;57.15;96894.78;4887377;28;20197;-80
2023/05/21 07:14:58;;;;;;;16.23;12.32;;;;;;;20.60;57.81;96900.97;4863900;28;20226;-81
2023/05/21 07:17:23;;;;;;;14.10;12.55;;;;;;;20.65;57.12;96902.69;4871763;28;20413;-81
2023/05/21 07:19:49;;;;;;;14.80;12.02;;;;;;;20.79;57.13;96899.84;4886729;28;20410;-81
2023/05/21 07:22:14;;;;;;;16.17;12.57;;;;;;;20.80;56.92;96894.22;4887192;28;20194;-80
2023/05/21 07:24:39;;;;;;;16.70;13.48;;;;;;;20.98;56.60;96894.94;4884776;28;20362;-81
2023/05/21 07:27:05;;;;;;;15.82;12.88;;;;;;;20.81;55.82;96901.06;4870818;28;20238;-81
2023/05/21 07:29:32;;;;;;;15.57;12.77;;;;;;;20.89;55.98;96894.97;4868836;28;20173;-81
2023/05/21 07:31:57;;;;;;;13.32;11.50;;;;;;;21.12;55.65;96898.13;4881044;28;20262;-81
2023/05/21 07:34:23;;;;;;;12.45;11.07;;;;;;;21.19;56.20;96897.63;4868678;28;20336;-81
2023/05/21 07:36:48;;;;;;;16.77;13.27;;;;;;;21.07;55.24;96900.19;4884291;28;20308;-82
2023/05/21 07:39:16;;;;;;;14.48;12.35;;;;;;;21.12;55.13;96895.47;4882550;28;20382;-81
2023/05/21 07:41:41;;;;;;;13.23;11.63;;;;;;;21.11;55.05;96895.78;4882500;28;20591;-79
2023/05/21 07:44:07;;;;;;;13.88;12.13;;;;;;;20.92;55.49;96893.56;4889680;28;20135;-79
2023/05/21 07:46:32;;;;;;;14.88;12.32;;;;;;;21.19;55.51;96896.84;4888070;28;20215;-81
2023/05/21 07:48:57;;;;;;;14.35;12.45;;;;;;;21.23;55.08;96887.16;4875336;28;20279;-81
2023/05/21 07:51:23;;;;;;;14.35;12.32;;;;;;;21.26;54.75;96891.81;4887842;28;20422;-80
2023/05/21 07:53:48;;;;;;;16.38;12.30;;;;;;;21.26;55.06;96889.19;4869858;28;20226;-81
2023/05/21 07:56:14;;;;;;;14.38;12.15;;;;;;;21.45;54.29;96889.50;4884061;28;20371;-81
2023/05/21 07:58:39;;;;;;;12.88;11.48;;;;;;;21.23;55.00;96882.66;4876268;28;20178;-81
2023/05/21 08:01:05;;;;;;;14.00;12.30;;;;;;;21.42;55.19;96884.88;4879359;28;20324;-81
2023/05/21 08:03:30;;;;;;;12.60;11.27;;;;;;;21.49;54.67;96885.16;4879690;28;20105;-82
2023/05/21 08:05:56;;;;;;;13.13;11.77;;;;;;;21.51;54.36;96882.97;4885808;28;20160;-81
2023/05/21 08:08:22;;;;;;;14.20;12.02;;;;;;;21.68;54.11;96884.72;4870657;28;20323;-81
2023/05/21 08:10:47;;;;;;;13.90;12.27;;;;;;;21.72;54.25;96882.19;4882689;28;20357;-81
2023/05/21 08:13:14;;;;;;;13.35;11.65;;;;;;;21.86;53.98;96881.94;4886467;28;20329;-82
2023/05/21 08:15:40;;;;;;;13.93;11.77;;;;;;;21.83;53.79;96877.25;4883683;28;20464;-81
2023/05/21 08:18:05;;;;;;;14.13;12.68;;;;;;;21.95;53.91;96874.69;4870657;28;20325;-81
2023/05/21 08:20:32;;;;;;;12.85;11.30;;;;;;;22.06;53.08;96875.81;4869893;28;20108;-81
2023/05/21 08:22:59;;;;;;;12.55;11.30;;;;;;;22.15;53.35;96878.38;4869192;28;20276;-80
2023/05/21 08:25:25;;;;;;;13.88;12.13;;;;;;;21.83;53.94;96877.25;4886877;28;20256;-80
2023/05/21 08:27:50;;;;;;;14.68;12.75;;;;;;;22.01;52.93;96877.91;4886577;28;20269;-81
2023/05/21 08:30:16;;;;;;;13.60;12.00;;;;;;;21.93;53.02;96876.88;4868712;28;20238;-81
2023/05/21 08:32:42;;;;;;;13.98;12.50;;;;;;;21.85;52.92;96875.84;4869139;28;20565;-81
2023/05/21 08:35:07;;;;;;;12.68;11.35;;;;;;;21.86;53.87;96877.38;4885528;28;20160;-81
2023/05/21 08:37:33;;;;;;;12.30;11.00;;;;;;;22.16;53.29;96885.25;4888688;28;20182;-81
2023/05/21 08:39:58;;;;;;;14.77;11.80;;;;;;;22.21;53.09;96887.69;4868055;28;20388;-82
2023/05/21 08:42:47;;;;;;;13.00;11.65;;;;;;;22.42;52.28;96877.06;4886363;28;20214;-82
2023/05/21 08:45:17;;;;;;;12.27;10.90;;;;;;;22.31;52.65;96883.09;4886521;28;20321;-81
2023/05/21 08:47:43;;;;;;;13.45;12.05;;;;;;;22.49;52.29;96887.13;4867604;28;20414;-81
2023/05/21 08:50:13;;;;;;;13.73;12.27;;;;;;;22.60;52.05;96884.81;4885976;28;20277;-82
2023/05/21 08:52:39;;;;;;;13.10;11.80;;;;;;;22.50;51.97;96886.03;4872491;28;20179;-81
2023/05/21 08:55:05;;;;;;;13.45;11.98;;;;;;;22.41;52.28;96880.81;4869475;28;20473;-81
2023/05/21 08:57:31;;;;;;;13.07;11.65;;;;;;;22.55;52.45;96880.50;4891890;28;20172;-81
2023/05/21 08:59:57;;;;;;;14.27;12.07;;;;;;;22.78;52.32;96885.41;4854471;28;20360;-81
2023/05/21 09:02:25;;;;;;;13.65;11.82;;;;;;;22.61;52.34;96881.84;4851980;28;20391;-81
2023/05/21 09:04:58;;;;;;;12.82;11.52;;;;;;;22.68;51.74;96888.47;4883877;28;20218;-81
2023/05/21 09:07:24;;;;;;;12.75;11.07;;;;;;;22.52;52.47;96891.00;4885197;28;20249;-82
2023/05/21 09:09:56;;;;;;;13.00;11.45;;;;;;;22.73;51.59;96880.31;4891969;28;20403;-82
2023/05/21 09:12:22;;;;;;;13.43;11.77;;;;;;;22.84;51.56;96885.94;4870912;28;20218;-81
2023/05/21 09:14:48;;;;;;;13.68;12.23;;;;;;;23.02;50.83;96878.56;4889664;28;20337;-82
2023/05/21 09:17:14;;;;;;;13.15;11.70;;;;;;;23.17;50.44;96883.97;4873052;28;20133;-82
2023/05/21 09:20:12;;;;;;;;;;;;;;;;;;;;;
2023/05/21 09:22:45;;;;;;;13.50;12.10;;;;;;;23.14;51.18;96879.34;4901312;28;20361;-81
2023/05/21 09:25:11;;;;;;;12.43;11.20;;;;;;;23.31;51.22;96880.97;4860916;28;20199;-81
2023/05/21 09:27:38;;;;;;;13.93;12.52;;;;;;;23.47;50.09;96874.97;4888085;28;20274;-82
2023/05/21 09:30:07;;;;;;;13.43;12.05;;;;;;;23.82;49.67;96880.56;4870617;28;20454;-81
2023/05/21 09:32:32;;;;;;;13.35;11.32;;;;;;;24.23;49.45;96867.16;4867353;28;20621;-81
2023/05/21 09:35:09;;;;;;;13.52;11.82;;;;;;;24.38;47.86;96877.06;4890441;28;20193;-80
2023/05/21 09:37:42;;;;;;;12.05;10.70;;;;;;;24.44;48.49;96883.69;4890791;28;20213;-81
2023/05/21 09:40:12;;;;;;;13.07;11.77;;;;;;;24.47;47.81;96883.00;4884626;28;20450;-82
2023/05/21 09:42:39;;;;;;;12.93;11.60;;;;;;;24.05;48.09;96867.47;4878261;28;20333;-80
2023/05/21 09:45:06;;;;;;;13.20;11.80;;;;;;;24.33;47.93;96872.00;4893847;28;20214;-81
2023/05/21 09:47:31;;;;;;;11.85;10.75;;;;;;;24.79;47.47;96880.38;4895542;28;20342;-81
2023/05/21 09:49:57;;;;;;;13.13;11.35;;;;;;;24.77;48.33;96887.16;4873158;28;20219;-80
2023/05/21 09:52:28;;;;;;;12.73;11.45;;;;;;;25.26;47.52;96872.69;4873744;28;20245;-81
2023/05/21 09:54:53;;;;;;;12.50;11.30;;;;;;;25.29;46.88;96878.09;4907941;28;20458;-80
2023/05/21 09:57:23;;;;;;;13.55;12.25;;;;;;;24.92;47.14;96886.38;4872658;28;20242;-81
2023/05/21 09:59:49;;;;;;;13.38;11.38;;;;;;;24.81;47.46;96883.47;4849232;28;20201;-82
2023/05/21 10:02:22;;;;;;;13.02;11.70;;;;;;;24.96;46.98;96889.13;4874549;28;20220;-82
2023/05/21 10:04:53;;;;;;;12.18;10.88;;;;;;;25.41;47.25;96882.53;4887621;28;20343;-82
2023/05/21 10:07:26;;;;;;;14.02;12.65;;;;;;;25.54;45.66;96883.19;4872153;28;20234;-81
2023/05/21 10:09:55;;;;;;;12.40;11.10;;;;;;;25.68;45.86;96877.38;4874181;28;20198;-82
2023/05/21 10:12:22;;;;;;;11.80;10.73;;;;;;;25.82;45.08;96882.97;4853656;28;20331;-82
2023/05/21 10:14:51;;;;;;;12.20;11.00;;;;;;;25.77;44.58;96885.91;4867984;28;20108;-81
2023/05/21 10:17:17;;;;;;;12.43;11.32;;;;;;;25.86;44.99;96883.03;4892395;28;20210;-82
2023/05/21 10:19:43;;;;;;;12.55;11.30;;;;;;;25.85;45.21;96884.19;4874812;28;20659;-82
2023/05/21 10:22:09;;;;;;;12.23;11.02;;;;;;;25.67;44.54;96881.16;4903861;28;20204;-80
2023/05/21 10:24:35;;;;;;;11.93;10.75;;;;;;;25.40;43.83;96881.00;4885389;28;20223;-80
2023/05/21 10:27:01;;;;;;;11.55;10.50;;;;;;;25.23;43.76;96888.22;4885271;28;20273;-78
2023/05/21 10:29:27;;;;;;;12.07;10.85;;;;;;;25.27;44.30;96882.22;4873072;28;20267;-81
2023/05/21 10:31:53;;;;;;;11.82;10.50;;;;;;;25.25;43.36;96882.53;4890331;28;20070;-82
2023/05/21 10:34:18;;;;;;;10.95;9.85;;;;;;;25.58;42.73;96876.03;4872372;28;20313;-81
2023/05/21 10:36:45;;;;;;;10.88;9.95;;;;;;;25.80;44.45;96875.31;4869895;28;20214;-81
2023/05/21 10:39:11;;;;;;;12.18;10.98;;;;;;;25.86;44.39;96877.69;4887964;28;20262;-82
2023/05/21 10:41:52;;;;;;;11.10;9.95;;;;;;;25.66;41.90;96871.63;4886716;28;20181;-81
2023/05/21 10:44:40;;;;;;;11.05;9.98;;;;;;;25.86;42.12;96883.03;4887132;28;20648;-81
2023/05/21 10:47:18;;;;;;;11.75;10.55;;;;;;;25.82;42.52;96882.97;4894528;28;20365;-80
2023/05/21 10:50:08;;;;;;;11.55;10.45;;;;;;;26.17;42.71;96882.16;4885702;28;20189;-82
2023/05/21 10:52:49;;;;;;;10.48;9.50;;;;;;;26.65;41.49;96874.59;4893317;28;20210;-84
2023/05/21 10:55:23;;;;;;;10.65;9.65;;;;;;;26.87;40.99;96880.25;4883871;28;20353;-81
2023/05/21 10:58:13;;;;;;;10.73;9.40;;;;;;;26.94;39.39;96872.38;4886152;28;20290;-81
2023/05/21 11:00:40;;;;;;;10.32;9.30;;;;;;;26.70;40.39;96868.97;4890999;28;20201;-81
2023/05/21 11:03:06;;;;;;;10.60;9.50;;;;;;;26.90;40.92;96876.88;4873955;28;20207;-79
2023/05/21 11:05:41;;;;;;;11.02;9.98;;;;;;;26.70;40.94;96876.97;4890539;28;20190;-83
2023/05/21 11:08:34;;;;;;;10.75;9.73;;;;;;;27.39;39.79;96873.41;4887123;28;20266;-81
2023/05/21 11:11:01;;;;;;;10.55;9.65;;;;;;;26.94;39.37;96884.94;4884004;28;20225;-81
2023/05/21 11:13:30;;;;;;;10.90;9.95;;;;;;;26.60;40.26;96879.44;4878266;28;20108;-81
2023/05/21 11:15:58;;;;;;;11.02;9.93;;;;;;;26.35;40.11;96875.19;4891086;28;20148;-81
2023/05/21 11:18:39;;;;;;;10.27;9.27;;;;;;;27.06;39.56;96880.19;4870252;28;20334;-82